createdAt,value
2023-03-21T00:02:33.659Z,9.07
2023-03-21T00:07:39.003Z,9.19
2023-03-21T00:12:42.968Z,9.26
2023-03-21T00:17:50.859Z,9.30
2023-03-21T00:22:56.337Z,9.32
2023-03-21T00:28:08.469Z,9.37
2023-03-21T00:33:22.364Z,9.35
2023-03-21T00:38:31.098Z,9.26
2023-03-21T00:43:35.355Z,9.01
2023-03-21T00:48:39.343Z,8.48
2023-03-21T00:53:50.551Z,8.29
2023-03-21T00:58:54.568Z,8.25
2023-03-21T01:04:03.694Z,8.14
2023-03-21T01:09:12.853Z,8.10
2023-03-21T01:14:23.012Z,8.04
2023-03-21T01:19:44.335Z,8.14
2023-03-21T01:24:58.608Z,8.46
2023-03-21T01:30:18.987Z,8.69
2023-03-21T01:35:23.989Z,8.90
2023-03-21T01:40:33.603Z,8.99
2023-03-21T01:46:51.431Z,9.14
2023-03-21T01:52:37.977Z,9.10
2023-03-21T01:58:05.407Z,8.84
2023-03-21T02:03:29.498Z,8.89
2023-03-21T02:08:50.292Z,8.94
2023-03-21T02:14:05.686Z,8.57
2023-03-21T02:19:52.937Z,8.30
2023-03-21T02:25:29.407Z,8.02
2023-03-21T02:30:52.404Z,8.11
2023-03-21T02:36:27.017Z,8.05
2023-03-21T02:41:40.551Z,8.09
2023-03-21T02:46:59.746Z,7.66
2023-03-21T02:52:17.081Z,7.76
2023-03-21T02:57:40.082Z,7.54
2023-03-21T03:02:50.612Z,7.47
2023-03-21T03:08:07.885Z,7.40
2023-03-21T03:13:25.694Z,7.42
2023-03-21T03:18:37.884Z,7.12
2023-03-21T03:23:46.141Z,6.98
2023-03-21T03:28:53.699Z,6.92
2023-03-21T03:34:02.315Z,6.77
2023-03-21T03:39:10.879Z,6.63
2023-03-21T03:44:20.386Z,6.56
2023-03-21T03:49:38.104Z,6.38
2023-03-21T03:54:45.330Z,6.29
2023-03-21T03:59:55.154Z,6.26
2023-03-21T04:05:23.450Z,6.08
2023-03-21T04:10:27.462Z,5.88
2023-03-21T04:15:32.975Z,5.74
2023-03-21T04:20:48.704Z,5.54
2023-03-21T04:25:57.093Z,5.52
2023-03-21T04:31:24.491Z,5.65
2023-03-21T04:36:39.069Z,5.74
2023-03-21T04:41:47.027Z,5.96
2023-03-21T04:46:52.576Z,6.18
2023-03-21T04:51:56.566Z,6.38
2023-03-21T04:57:00.672Z,6.05
2023-03-21T05:02:06.265Z,6.07
2023-03-21T05:07:10.557Z,6.27
2023-03-21T05:12:14.500Z,6.88
2023-03-21T05:17:23.333Z,6.94
2023-03-21T05:22:29.205Z,7.13
2023-03-21T05:27:36.466Z,7.24
2023-03-21T05:32:48.637Z,7.46
2023-03-21T05:37:53.265Z,7.57
2023-03-21T05:42:59.116Z,8.04
2023-03-21T05:48:05.003Z,8.15
2023-03-21T05:53:15.379Z,8.21
2023-03-21T05:58:19.579Z,8.55
2023-03-21T06:03:28.430Z,9.03
2023-03-21T06:08:40.295Z,9.20
2023-03-21T06:13:44.303Z,9.12
2023-03-21T06:18:49.805Z,9.40
2023-03-21T06:24:04.885Z,9.41
2023-03-21T06:29:08.936Z,9.89
2023-03-21T06:34:14.447Z,10.54
2023-03-21T06:39:18.475Z,10.94
2023-03-21T06:44:23.204Z,11.38
2023-03-21T06:49:37.570Z,11.46
2023-03-21T06:54:46.443Z,12.02
2023-03-21T06:59:53.076Z,12.17
2023-03-21T07:05:01.285Z,11.53
2023-03-21T07:10:08.992Z,11.37
2023-03-21T07:15:28.839Z,11.51
2023-03-21T07:20:34.383Z,11.54
2023-03-21T07:25:57.215Z,11.38
2023-03-21T07:31:04.111Z,11.52
2023-03-21T07:36:12.654Z,10.94
2023-03-21T07:46:28.038Z,10.88
2023-03-21T07:51:35.418Z,11.57
2023-03-21T07:56:39.366Z,11.89
2023-03-21T08:01:43.481Z,13.28
2023-03-21T08:06:48.846Z,13.66
2023-03-21T08:11:52.869Z,14.03
2023-03-21T08:16:56.861Z,14.17
2023-03-21T08:22:02.443Z,13.88
2023-03-21T08:27:06.817Z,13.57
2023-03-21T08:32:11.121Z,13.52
2023-03-21T08:37:16.633Z,13.50
2023-03-21T08:42:21.605Z,14.84
2023-03-21T08:47:25.734Z,14.99
2023-03-21T08:52:34.425Z,15.69
2023-03-21T08:57:38.346Z,16.39
2023-03-21T09:02:42.936Z,16.03
2023-03-21T09:07:49.760Z,15.84
2023-03-21T09:12:55.842Z,15.62
2023-03-21T09:18:13.068Z,15.75
2023-03-21T09:23:18.366Z,15.46
2023-03-21T09:28:22.429Z,15.72
2023-03-21T09:33:27.363Z,14.73
2023-03-21T09:38:36.738Z,14.32
2023-03-21T09:43:52.500Z,13.89
2023-03-21T09:49:00.323Z,14.25
2023-03-21T09:54:10.269Z,14.49
2023-03-21T09:59:23.713Z,14.47
2023-03-21T10:04:27.836Z,14.56
2023-03-21T10:09:34.912Z,14.68
2023-03-21T10:14:43.123Z,14.89
2023-03-21T10:19:48.348Z,15.03
2023-03-21T10:24:53.670Z,15.85
2023-03-21T10:29:57.602Z,15.87
2023-03-21T10:35:26.160Z,16.00
2023-03-21T10:40:33.555Z,15.95
2023-03-21T10:45:38.513Z,15.93
2023-03-21T10:50:43.779Z,15.86
2023-03-21T10:55:52.354Z,16.09
2023-03-21T11:00:59.349Z,16.15
2023-03-21T11:06:06.932Z,17.11
2023-03-21T11:11:21.679Z,19.09
2023-03-21T11:16:31.372Z,20.24
2023-03-21T11:21:38.640Z,20.50
2023-03-21T11:26:45.609Z,20.58
2023-03-21T11:31:49.953Z,20.71
2023-03-21T11:37:02.727Z,20.15
2023-03-21T11:42:23.335Z,19.84
2023-03-21T11:47:27.231Z,18.78
2023-03-21T11:52:41.640Z,18.48
2023-03-21T11:58:05.266Z,18.30
2023-03-21T12:03:54.753Z,18.63
2023-03-21T12:09:11.236Z,18.67
2023-03-21T12:14:25.742Z,17.50
2023-03-21T12:19:49.521Z,17.99
2023-03-21T12:24:56.763Z,18.19
2023-03-21T12:30:15.086Z,17.83
2023-03-21T12:35:32.616Z,17.43
2023-03-21T12:41:01.898Z,16.65
2023-03-21T12:46:15.105Z,16.13
2023-03-21T12:51:22.309Z,16.39
2023-03-21T12:56:31.228Z,16.45
2023-03-21T13:01:40.221Z,16.23
2023-03-21T13:06:47.175Z,16.20
2023-03-21T13:11:57.014Z,15.62
2023-03-21T13:17:05.581Z,15.84
2023-03-21T13:22:17.445Z,15.69
2023-03-21T13:27:29.665Z,15.54
2023-03-21T13:32:40.159Z,15.54
2023-03-21T13:37:51.501Z,15.39
2023-03-21T13:42:59.610Z,15.40
2023-03-21T13:48:07.841Z,15.32
2023-03-21T13:53:31.936Z,16.00
2023-03-21T13:58:39.152Z,15.75
2023-03-21T14:03:46.529Z,14.91
2023-03-21T14:08:50.562Z,14.69
2023-03-21T14:13:55.757Z,14.74
2023-03-21T14:19:04.988Z,14.97
2023-03-21T14:24:13.962Z,15.01
2023-03-21T14:29:26.404Z,14.70
2023-03-21T14:34:36.384Z,14.37
2023-03-21T14:39:44.534Z,14.20
2023-03-21T14:44:55.399Z,14.01
2023-03-21T14:50:02.205Z,14.02
2023-03-21T14:55:15.001Z,13.80
2023-03-21T15:00:28.510Z,13.65
2023-03-21T15:05:37.479Z,13.41
2023-03-21T15:10:42.011Z,13.39
2023-03-21T15:15:46.525Z,13.36
2023-03-21T15:20:53.519Z,13.20
2023-03-21T15:31:51.315Z,12.90
2023-03-21T15:37:00.270Z,12.77
2023-03-21T15:42:27.554Z,12.82
2023-03-21T15:47:42.001Z,12.59
2023-03-21T15:52:50.209Z,12.49
2023-03-21T15:57:56.360Z,12.50
2023-03-21T16:03:06.513Z,12.39
2023-03-21T16:08:23.184Z,12.36
2023-03-21T16:13:27.154Z,12.22
2023-03-21T16:18:32.088Z,12.19
2023-03-21T16:23:37.450Z,12.19
2023-03-21T16:28:41.398Z,12.06
2023-03-21T16:33:45.867Z,11.97
2023-03-21T16:38:52.771Z,11.89
2023-03-21T16:43:56.756Z,11.79
2023-03-21T16:49:00.744Z,11.64
2023-03-21T16:54:06.646Z,11.58
2023-03-21T16:59:13.561Z,11.53
2023-03-21T17:04:19.253Z,11.54
2023-03-21T17:09:28.028Z,11.56
2023-03-21T17:14:32.004Z,11.56
2023-03-21T17:19:35.990Z,11.63
2023-03-21T17:24:41.444Z,11.55
2023-03-21T17:29:45.988Z,11.45
2023-03-21T17:34:53.134Z,11.38
2023-03-21T17:39:58.626Z,11.18
2023-03-21T17:45:02.664Z,10.73
2023-03-21T17:50:14.631Z,10.41
2023-03-21T17:55:21.484Z,10.18
2023-03-21T18:00:28.933Z,9.83
2023-03-21T18:05:33.819Z,9.53
2023-03-21T18:10:39.373Z,9.40
2023-03-21T18:15:44.673Z,9.31
2023-03-21T18:20:53.045Z,9.27
2023-03-21T18:25:59.929Z,9.15
2023-03-21T18:31:17.364Z,9.11
2023-03-21T18:36:27.847Z,9.18
2023-03-21T18:41:35.298Z,9.17
2023-03-21T18:46:47.020Z,9.26
2023-03-21T18:51:51.389Z,9.25
2023-03-21T19:02:22.696Z,9.26
2023-03-21T19:07:27.033Z,9.41
2023-03-21T19:12:32.643Z,9.53
2023-03-21T19:23:00.655Z,9.32
2023-03-21T19:28:06.346Z,9.27
2023-03-21T19:33:10.269Z,9.13
2023-03-21T19:38:14.337Z,9.02
2023-03-21T19:48:50.315Z,8.89
2023-03-21T19:53:54.424Z,8.84
2023-03-21T19:59:01.315Z,8.77
2023-03-21T20:04:05.678Z,8.72
2023-03-21T20:09:49.793Z,8.64
2023-03-21T20:14:37.149Z,8.55
2023-03-21T20:19:43.774Z,8.52
2023-03-21T20:24:48.642Z,8.47
2023-03-21T20:30:09.048Z,8.36
2023-03-21T20:35:29.579Z,8.45
2023-03-21T20:40:41.045Z,8.39
2023-03-21T20:45:46.461Z,8.41
2023-03-21T20:50:57.213Z,8.48
2023-03-21T20:56:05.706Z,8.37
2023-03-21T21:01:15.683Z,8.52
2023-03-21T21:06:40.365Z,8.51
2023-03-21T21:17:30.686Z,8.40
2023-03-21T21:22:34.312Z,8.15
2023-03-21T21:27:38.344Z,8.05
2023-03-21T21:32:43.781Z,7.84
2023-03-21T21:37:47.733Z,7.80
2023-03-21T21:42:51.746Z,7.63
2023-03-21T21:47:57.734Z,7.57
2023-03-21T21:53:03.885Z,7.46
2023-03-21T21:58:08.553Z,7.11
2023-03-21T22:03:15.064Z,6.95
2023-03-21T22:08:23.092Z,6.88
2023-03-21T22:13:27.544Z,6.79
2023-03-21T22:18:36.108Z,6.77
2023-03-21T22:23:41.601Z,6.75
2023-03-21T22:28:45.610Z,6.75
2023-03-21T22:33:50.983Z,6.81
2023-03-21T22:38:54.997Z,6.77
2023-03-21T22:43:58.953Z,6.76
2023-03-21T22:49:06.050Z,6.66
2023-03-21T22:54:11.110Z,6.62
2023-03-21T22:59:15.110Z,6.64
2023-03-21T23:04:20.690Z,6.70
2023-03-21T23:09:25.108Z,6.83
2023-03-21T23:14:30.170Z,7.08
2023-03-21T23:19:35.855Z,7.05
2023-03-21T23:24:40.096Z,6.97
2023-03-21T23:29:45.441Z,7.22
2023-03-21T23:34:50.868Z,7.16
2023-03-21T23:39:55.516Z,7.10
2023-03-21T23:45:01.525Z,6.85
2023-03-21T23:50:09.832Z,6.73
2023-03-21T23:55:14.069Z,6.67
